Címlap Időjárás Ferihegy, Budapest Airport időjárás előrejelzés – METAR, TAF BUD/LHBP

Időjárás Ferihegy, Budapest Airport időjárás előrejelzés – METAR, TAF BUD/LHBP

Aktuális szöveges időjárásjelentés / METAR BUD/LHBP, és 24 órás szöveges időjárás-előrejelzés / TAF BUD/LHBP Budapest Liszt Ferenc Nemzetközi Repülőtér

Available data for LHBP from the past 6 hours
Metar
LHBP 222100Z 25004KT CAVOK 10/07 Q1024 NOSIG

21:00 UTC

Wind: 250° 4kt

Visibility:

Sky:

Temp: 10 deg C / 50 deg F

Dewpoint: 7 deg C / 44.6 deg F

Pressure: 1024 hPa

TAF
TAF LHBP 221715Z 2218/2318 31006KT CAVOK BECMG 2306/2309 30012KT FEW035 BKN200 BECMG 2310/2313 27017KT CAVOK BECMG 2316/2318 SCT040 BKN070

Szélirány és erősség Ferihegy és környéke

Európa műholdkép


6 napos időjárás előrejelzés – Budapest Ferihegy Airport


Data is taken from the National Weather Service at NOAA. Satelite image by AustroControl & Meteo-Mc. Only for spotters, do not use for real flight!

A METAR és a TAF adatok a National Weather Service adatbázisából származnak. Az oldalon közölt adatok tájékoztató jellegűek, az oldal üzemeltetője nem vállal felelősséget ezek esetleges pontatlanságáért. Ne használd valós repüléshez!

Néhány hasznos infó, mielőtt repülőre szállsz